Long Beach, California
Current Conditions -  °F | °C
As of 12:27 AM on Tuesday 21 Oct 2014 (Local Time) from KLGB Reporting Station
Broken Clouds Broken Clouds  
Wind Chill: 65°   Ceiling: 1500
Heat Index: 65°   Visibility: 10mi
Dew Point: 62°   Wind: 0mph
Humidity: 90%   Direction: NA
Pressure: 29.9"   Gusts: NA
Location:  33.77°N, 118.19°W
Report Text: KLGB 210727Z AUTO 00000KT 10SM BKN015 18/17 A2990 RMK AO2 T01830167 TSNO
Loading
Personal Weather Stations






























Interactive Weather Map New forecast layout! Learn more

10-Day Weather Forecast

Advertisements
Track Severe Weather on mobile